Union Beach, New Jersey
Current Conditions -  °F | °C
As of 9:55 PM on Saturday 25 Oct 2014 (Local Time) from KLDJ Reporting Station
Clear Clear  
Wind Chill: 64°   Ceiling: Unl
Heat Index: 64°   Visibility: 10mi
Dew Point: 47°   Wind: 5mph
Humidity: 54%   Direction: 240°WSW
Pressure: 29.64"   Gusts: NA
Location:  40.4398°N, 74.1836°W
Report Text: KLDJ 260155Z AUTO 24004KT 10SM CLR 18/09 A2964 RMK AO2 T01800086
Loading
Personal Weather Stations






























Interactive Weather Map
Tropical Storm Tracking
New forecast layout! Learn more

10-Day Weather Forecast

Advertisements
Track Severe Weather on mobile